SAS689 EBBR-LFPG
Flight info
| Callsign | SAS689 |
|---|---|
| Flight time | 0h 41m |
| Altitude | 19000 |
| Route | CIV4V CIV Y50 IDOKO/N0382F170 Y50 MATIX MATIX9H |
| Aircraft | A320/M-SDE3FGHIRWY/LB1 |
Departure
| Time | 2026-05-08 20:14 |
|---|---|
| Airport | Brussels Airport (EBBR) |
Arrival
| Time | 2026-05-08 20:55 |
|---|---|
| Airport | Charles de Gaulle International Airport (LFPG) |
| Time | Latitude | Longitude | Altitude | Speed | Heading |
|---|---|---|---|---|---|
| 2026-05-08 19:50 | 50.90015 | 4.49068 | 132 ft | 0 kts | 335° |
| 2026-05-08 19:53 | 50.90014 | 4.49068 | 133 ft | 1 kts | 335° |
| 2026-05-08 19:53 | 50.90015 | 4.49068 | 132 ft | 0 kts | 335° |
| 2026-05-08 20:05 | 50.90004 | 4.49076 | 105 ft | 2 kts | 335° |
| 2026-05-08 20:06 | 50.89989 | 4.49087 | 106 ft | 2 kts | 335° |
| 2026-05-08 20:06 | 50.89975 | 4.49097 | 134 ft | 2 kts | 335° |
| 2026-05-08 20:06 | 50.89960 | 4.49105 | 135 ft | 2 kts | 25° |
| 2026-05-08 20:06 | 50.89952 | 4.49097 | 135 ft | 0 kts | 61° |
| 2026-05-08 20:09 | 50.89953 | 4.49102 | 135 ft | 3 kts | 63° |
| 2026-05-08 20:09 | 50.89968 | 4.49204 | 134 ft | 11 kts | 86° |
| 2026-05-08 20:09 | 50.89924 | 4.49258 | 136 ft | 7 kts | 187° |
| 2026-05-08 20:09 | 50.89890 | 4.49247 | 138 ft | 8 kts | 193° |
| 2026-05-08 20:10 | 50.89808 | 4.49213 | 143 ft | 10 kts | 194° |
| 2026-05-08 20:10 | 50.89758 | 4.49192 | 146 ft | 6 kts | 195° |
| 2026-05-08 20:10 | 50.89703 | 4.49168 | 148 ft | 8 kts | 195° |
| 2026-05-08 20:10 | 50.89668 | 4.49154 | 151 ft | 2 kts | 195° |
| 2026-05-08 20:11 | 50.89623 | 4.49116 | 153 ft | 16 kts | 217° |
| 2026-05-08 20:11 | 50.89533 | 4.49054 | 157 ft | 12 kts | 194° |
| 2026-05-08 20:11 | 50.89465 | 4.49028 | 159 ft | 8 kts | 194° |
| 2026-05-08 20:11 | 50.89380 | 4.49037 | 163 ft | 13 kts | 129° |
| 2026-05-08 20:12 | 50.89323 | 4.49087 | 167 ft | 7 kts | 182° |
| 2026-05-08 20:12 | 50.89284 | 4.49075 | 169 ft | 4 kts | 192° |
| 2026-05-08 20:12 | 50.89232 | 4.49053 | 173 ft | 18 kts | 195° |
| 2026-05-08 20:12 | 50.89150 | 4.49120 | 176 ft | 14 kts | 81° |
| 2026-05-08 20:13 | 50.89168 | 4.49186 | 176 ft | 0 kts | 70° |
| 2026-05-08 20:13 | 50.89198 | 4.49310 | 176 ft | 45 kts | 69° |
| 2026-05-08 20:13 | 50.89392 | 4.50142 | 177 ft | 112 kts | 70° |
| 2026-05-08 20:13 | 50.89726 | 4.51573 | 196 ft | 162 kts | 69° |
| 2026-05-08 20:14 | 50.90142 | 4.53267 | 760 ft | 165 kts | 65° |
| 2026-05-08 20:14 | 50.90644 | 4.54894 | 1496 ft | 165 kts | 63° |
| 2026-05-08 20:14 | 50.91201 | 4.56602 | 1911 ft | 185 kts | 63° |
| 2026-05-08 20:14 | 50.91832 | 4.58519 | 2240 ft | 207 kts | 63° |
| 2026-05-08 20:15 | 50.92528 | 4.60634 | 2672 ft | 226 kts | 63° |
| 2026-05-08 20:15 | 50.93265 | 4.62879 | 3437 ft | 232 kts | 63° |
| 2026-05-08 20:15 | 50.93926 | 4.65312 | 4002 ft | 250 kts | 72° |
| 2026-05-08 20:15 | 50.94470 | 4.67987 | 4812 ft | 258 kts | 73° |
| 2026-05-08 20:16 | 50.95011 | 4.70739 | 5671 ft | 264 kts | 73° |
| 2026-05-08 20:16 | 50.95516 | 4.73539 | 6475 ft | 272 kts | 81° |
| 2026-05-08 20:16 | 50.95424 | 4.76543 | 7237 ft | 277 kts | 108° |
| 2026-05-08 20:16 | 50.94480 | 4.79193 | 8057 ft | 280 kts | 135° |
| 2026-05-08 20:17 | 50.92868 | 4.80920 | 8894 ft | 283 kts | 158° |
| 2026-05-08 20:17 | 50.91020 | 4.82053 | 9757 ft | 286 kts | 165° |
| 2026-05-08 20:17 | 50.89033 | 4.82363 | 10434 ft | 294 kts | 186° |
| 2026-05-08 20:17 | 50.87022 | 4.81381 | 10701 ft | 316 kts | 211° |
| 2026-05-08 20:18 | 50.85346 | 4.78995 | 10932 ft | 338 kts | 235° |
| 2026-05-08 20:18 | 50.84257 | 4.75607 | 11318 ft | 352 kts | 246° |
| 2026-05-08 20:18 | 50.83252 | 4.72037 | 11977 ft | 358 kts | 245° |
| 2026-05-08 20:18 | 50.82231 | 4.68415 | 12710 ft | 362 kts | 245° |
| 2026-05-08 20:19 | 50.81191 | 4.64755 | 13420 ft | 367 kts | 245° |
| 2026-05-08 20:19 | 50.80133 | 4.61063 | 14103 ft | 371 kts | 245° |
| 2026-05-08 20:19 | 50.79061 | 4.57335 | 14732 ft | 374 kts | 245° |
| 2026-05-08 20:19 | 50.77976 | 4.53576 | 15358 ft | 377 kts | 245° |
| 2026-05-08 20:20 | 50.76879 | 4.49794 | 16011 ft | 380 kts | 245° |
| 2026-05-08 20:20 | 50.75770 | 4.45980 | 16638 ft | 383 kts | 245° |
| 2026-05-08 20:20 | 50.74655 | 4.42143 | 17234 ft | 386 kts | 245° |
| 2026-05-08 20:20 | 50.73531 | 4.38269 | 17842 ft | 389 kts | 245° |
| 2026-05-08 20:21 | 50.72402 | 4.34373 | 18427 ft | 392 kts | 245° |
| 2026-05-08 20:21 | 50.71261 | 4.30443 | 18907 ft | 396 kts | 245° |
| 2026-05-08 20:21 | 50.70110 | 4.26485 | 19084 ft | 397 kts | 245° |
| 2026-05-08 20:21 | 50.68935 | 4.22462 | 19135 ft | 412 kts | 245° |
| 2026-05-08 20:22 | 50.67726 | 4.18343 | 19119 ft | 426 kts | 245° |
| 2026-05-08 20:22 | 50.66470 | 4.14071 | 19121 ft | 431 kts | 245° |
| 2026-05-08 20:22 | 50.65209 | 4.09780 | 19113 ft | 432 kts | 245° |
| 2026-05-08 20:22 | 50.64355 | 4.06871 | 19113 ft | 432 kts | 245° |
| 2026-05-08 20:23 | 50.62682 | 4.01183 | 19124 ft | 432 kts | 245° |
| 2026-05-08 20:23 | 50.61414 | 3.96890 | 19110 ft | 432 kts | 245° |
| 2026-05-08 20:23 | 50.59897 | 3.92803 | 19109 ft | 433 kts | 233° |
| 2026-05-08 20:23 | 50.57836 | 3.89371 | 19103 ft | 434 kts | 220° |
| 2026-05-08 20:24 | 50.55307 | 3.86803 | 19115 ft | 435 kts | 206° |
| 2026-05-08 20:24 | 50.52450 | 3.85240 | 19103 ft | 436 kts | 192° |
| 2026-05-08 20:24 | 50.49445 | 3.84754 | 19101 ft | 437 kts | 180° |
| 2026-05-08 20:24 | 50.46412 | 3.85167 | 19100 ft | 437 kts | 174° |
| 2026-05-08 20:25 | 50.43389 | 3.85688 | 19100 ft | 437 kts | 174° |
| 2026-05-08 20:25 | 50.40372 | 3.86209 | 19098 ft | 437 kts | 174° |
| 2026-05-08 20:25 | 50.37348 | 3.86734 | 19095 ft | 437 kts | 174° |
| 2026-05-08 20:25 | 50.34328 | 3.87253 | 19091 ft | 437 kts | 174° |
| 2026-05-08 20:26 | 50.31346 | 3.87317 | 19089 ft | 435 kts | 189° |
| 2026-05-08 20:26 | 50.28479 | 3.85729 | 19085 ft | 433 kts | 211° |
| 2026-05-08 20:26 | 50.26261 | 3.82682 | 19083 ft | 432 kts | 233° |
| 2026-05-08 20:26 | 50.24907 | 3.78539 | 19152 ft | 428 kts | 252° |
| 2026-05-08 20:27 | 50.23926 | 3.74201 | 19498 ft | 416 kts | 245° |
| 2026-05-08 20:27 | 50.22365 | 3.70512 | 19318 ft | 405 kts | 227° |
| 2026-05-08 20:27 | 50.20157 | 3.67854 | 19151 ft | 401 kts | 208° |
| 2026-05-08 20:27 | 50.17527 | 3.66498 | 19093 ft | 400 kts | 188° |
| 2026-05-08 20:28 | 50.14758 | 3.66574 | 19099 ft | 401 kts | 169° |
| 2026-05-08 20:28 | 50.12039 | 3.67899 | 19110 ft | 419 kts | 159° |
| 2026-05-08 20:28 | 50.09259 | 3.69538 | 19106 ft | 432 kts | 159° |
| 2026-05-08 20:28 | 50.06438 | 3.71219 | 19101 ft | 436 kts | 159° |
| 2026-05-08 20:29 | 50.03599 | 3.72913 | 19098 ft | 437 kts | 159° |
| 2026-05-08 20:29 | 50.00663 | 3.74113 | 19104 ft | 437 kts | 173° |
| 2026-05-08 20:29 | 49.97629 | 3.74057 | 19098 ft | 437 kts | 189° |
| 2026-05-08 20:29 | 49.94707 | 3.72823 | 19106 ft | 437 kts | 199° |
| 2026-05-08 20:30 | 49.91828 | 3.71318 | 19104 ft | 437 kts | 199° |
| 2026-05-08 20:30 | 49.89921 | 3.70308 | 19090 ft | 437 kts | 199° |
| 2026-05-08 20:30 | 49.87046 | 3.68774 | 19094 ft | 437 kts | 199° |
| 2026-05-08 20:30 | 49.84168 | 3.67238 | 19093 ft | 437 kts | 199° |
| 2026-05-08 20:31 | 49.81291 | 3.65707 | 19095 ft | 437 kts | 199° |
| 2026-05-08 20:31 | 49.78427 | 3.64189 | 19018 ft | 430 kts | 199° |
| 2026-05-08 20:31 | 49.75621 | 3.62707 | 18779 ft | 423 kts | 199° |
| 2026-05-08 20:31 | 49.72837 | 3.61246 | 18535 ft | 419 kts | 199° |
| 2026-05-08 20:32 | 49.70085 | 3.59809 | 18286 ft | 416 kts | 198° |
| 2026-05-08 20:32 | 49.67351 | 3.58380 | 18020 ft | 413 kts | 199° |
| 2026-05-08 20:32 | 49.64635 | 3.56956 | 17747 ft | 411 kts | 199° |
| 2026-05-08 20:32 | 49.61931 | 3.55538 | 17475 ft | 410 kts | 199° |
| 2026-05-08 20:33 | 49.59240 | 3.54132 | 17214 ft | 408 kts | 199° |
| 2026-05-08 20:33 | 49.56562 | 3.52738 | 16954 ft | 406 kts | 199° |
| 2026-05-08 20:33 | 49.53890 | 3.51350 | 16688 ft | 404 kts | 199° |
| 2026-05-08 20:33 | 49.51231 | 3.49968 | 16429 ft | 403 kts | 199° |
| 2026-05-08 20:34 | 49.48578 | 3.48588 | 16177 ft | 401 kts | 199° |
| 2026-05-08 20:34 | 49.46010 | 3.47205 | 15919 ft | 390 kts | 203° |
| 2026-05-08 20:34 | 49.41720 | 3.42625 | 15417 ft | 370 kts | 227° |
| 2026-05-08 20:35 | 49.40203 | 3.39471 | 15180 ft | 367 kts | 242° |
| 2026-05-08 20:35 | 49.39186 | 3.35897 | 15047 ft | 365 kts | 248° |
| 2026-05-08 20:35 | 49.38226 | 3.32289 | 15084 ft | 366 kts | 248° |
| 2026-05-08 20:35 | 49.37264 | 3.28678 | 15084 ft | 366 kts | 248° |
| 2026-05-08 20:36 | 49.36302 | 3.25068 | 15087 ft | 366 kts | 248° |
| 2026-05-08 20:36 | 49.35339 | 3.21451 | 15087 ft | 366 kts | 248° |
| 2026-05-08 20:36 | 49.34380 | 3.17847 | 15087 ft | 366 kts | 248° |
| 2026-05-08 20:36 | 49.33423 | 3.14246 | 14799 ft | 362 kts | 248° |
| 2026-05-08 20:37 | 49.32476 | 3.10686 | 14317 ft | 359 kts | 247° |
| 2026-05-08 20:37 | 49.31519 | 3.07107 | 13366 ft | 369 kts | 247° |
| 2026-05-08 20:37 | 49.30561 | 3.03522 | 13131 ft | 357 kts | 247° |
| 2026-05-08 20:37 | 49.29630 | 3.00034 | 12699 ft | 351 kts | 247° |
| 2026-05-08 20:38 | 49.28714 | 2.96602 | 12186 ft | 347 kts | 247° |
| 2026-05-08 20:38 | 49.27803 | 2.93198 | 11665 ft | 344 kts | 247° |
| 2026-05-08 20:38 | 49.26897 | 2.89826 | 11203 ft | 341 kts | 247° |
| 2026-05-08 20:38 | 49.26000 | 2.86487 | 11062 ft | 339 kts | 247° |
| 2026-05-08 20:39 | 49.25100 | 2.83143 | 11085 ft | 339 kts | 247° |
| 2026-05-08 20:39 | 49.24201 | 2.79813 | 11086 ft | 339 kts | 247° |
| 2026-05-08 20:39 | 49.23301 | 2.76483 | 11087 ft | 339 kts | 247° |
| 2026-05-08 20:39 | 49.22398 | 2.73145 | 11084 ft | 339 kts | 247° |
| 2026-05-08 20:40 | 49.21496 | 2.69815 | 11086 ft | 339 kts | 247° |
| 2026-05-08 20:40 | 49.20591 | 2.66485 | 11086 ft | 339 kts | 247° |
| 2026-05-08 20:40 | 49.19698 | 2.63209 | 11084 ft | 334 kts | 247° |
| 2026-05-08 20:40 | 49.18832 | 2.60020 | 11082 ft | 315 kts | 248° |
| 2026-05-08 20:41 | 49.18222 | 2.56905 | 11082 ft | 299 kts | 259° |
| 2026-05-08 20:41 | 49.18037 | 2.53803 | 11084 ft | 289 kts | 268° |
| 2026-05-08 20:41 | 49.17978 | 2.50781 | 10941 ft | 280 kts | 268° |
| 2026-05-08 20:41 | 49.17912 | 2.47856 | 10807 ft | 267 kts | 268° |
| 2026-05-08 20:42 | 49.17848 | 2.45097 | 10678 ft | 255 kts | 268° |
| 2026-05-08 20:42 | 49.17787 | 2.42418 | 10482 ft | 250 kts | 267° |
| 2026-05-08 20:42 | 49.17725 | 2.39771 | 10221 ft | 248 kts | 267° |
| 2026-05-08 20:42 | 49.17663 | 2.37141 | 9919 ft | 247 kts | 268° |
| 2026-05-08 20:43 | 49.17622 | 2.34519 | 9591 ft | 246 kts | 269° |
| 2026-05-08 20:43 | 49.17599 | 2.31907 | 9261 ft | 245 kts | 269° |
| 2026-05-08 20:43 | 49.17414 | 2.29337 | 8929 ft | 243 kts | 252° |
| 2026-05-08 20:43 | 49.16834 | 2.26914 | 8561 ft | 243 kts | 248° |
| 2026-05-08 20:44 | 49.16197 | 2.24534 | 8236 ft | 241 kts | 247° |
| 2026-05-08 20:44 | 49.15558 | 2.22169 | 7898 ft | 240 kts | 247° |
| 2026-05-08 20:44 | 49.14921 | 2.19816 | 7537 ft | 240 kts | 247° |
| 2026-05-08 20:44 | 49.14277 | 2.17462 | 7206 ft | 239 kts | 247° |
| 2026-05-08 20:45 | 49.13636 | 2.15117 | 6856 ft | 239 kts | 247° |
| 2026-05-08 20:45 | 49.13009 | 2.12813 | 6546 ft | 238 kts | 246° |
| 2026-05-08 20:45 | 49.12383 | 2.10489 | 6202 ft | 236 kts | 247° |
| 2026-05-08 20:45 | 49.11761 | 2.08162 | 5842 ft | 236 kts | 247° |
| 2026-05-08 20:46 | 49.11152 | 2.05833 | 5475 ft | 237 kts | 246° |
| 2026-05-08 20:46 | 49.10545 | 2.03499 | 5133 ft | 237 kts | 247° |
| 2026-05-08 20:46 | 49.09935 | 2.01160 | 4828 ft | 237 kts | 247° |
| 2026-05-08 20:46 | 49.09326 | 1.98820 | 4498 ft | 237 kts | 247° |
| 2026-05-08 20:47 | 49.08714 | 1.96488 | 4179 ft | 237 kts | 247° |
| 2026-05-08 20:47 | 49.07911 | 1.94331 | 4007 ft | 234 kts | 223° |
| 2026-05-08 20:47 | 49.06526 | 1.93130 | 4018 ft | 231 kts | 191° |
| 2026-05-08 20:47 | 49.04929 | 1.92786 | 4014 ft | 232 kts | 183° |
| 2026-05-08 20:48 | 49.03315 | 1.92597 | 4011 ft | 232 kts | 181° |
| 2026-05-08 20:48 | 49.01737 | 1.92902 | 4007 ft | 229 kts | 154° |
| 2026-05-08 20:48 | 49.00480 | 1.94331 | 4009 ft | 227 kts | 130° |
| 2026-05-08 20:48 | 48.99679 | 1.96369 | 4009 ft | 226 kts | 109° |
| 2026-05-08 20:49 | 48.99435 | 1.98714 | 4010 ft | 225 kts | 87° |
| 2026-05-08 20:49 | 48.99566 | 2.01094 | 4010 ft | 226 kts | 85° |
| 2026-05-08 20:49 | 48.99710 | 2.03472 | 4009 ft | 226 kts | 85° |
| 2026-05-08 20:49 | 48.99851 | 2.05855 | 4009 ft | 226 kts | 85° |
| 2026-05-08 20:50 | 48.99990 | 2.08238 | 4010 ft | 226 kts | 85° |
| 2026-05-08 20:50 | 49.00128 | 2.10621 | 4009 ft | 226 kts | 85° |
| 2026-05-08 20:50 | 49.00265 | 2.13007 | 4008 ft | 226 kts | 85° |
| 2026-05-08 20:50 | 49.00402 | 2.15388 | 4007 ft | 226 kts | 85° |
| 2026-05-08 20:51 | 49.00539 | 2.17778 | 4008 ft | 226 kts | 85° |
| 2026-05-08 20:51 | 49.00676 | 2.20166 | 4006 ft | 226 kts | 85° |
| 2026-05-08 20:51 | 49.00811 | 2.22554 | 4007 ft | 227 kts | 85° |
| 2026-05-08 20:51 | 49.00947 | 2.24953 | 3893 ft | 227 kts | 85° |
| 2026-05-08 20:52 | 49.01082 | 2.27337 | 3625 ft | 226 kts | 85° |
| 2026-05-08 20:52 | 49.01216 | 2.29717 | 3351 ft | 225 kts | 85° |
| 2026-05-08 20:52 | 49.01349 | 2.32091 | 3046 ft | 224 kts | 85° |
| 2026-05-08 20:52 | 49.01478 | 2.34408 | 2744 ft | 219 kts | 85° |
| 2026-05-08 20:53 | 49.01604 | 2.36671 | 2456 ft | 210 kts | 85° |
| 2026-05-08 20:53 | 49.01724 | 2.38831 | 2187 ft | 201 kts | 84° |
| 2026-05-08 20:53 | 49.01838 | 2.40905 | 1932 ft | 187 kts | 84° |
| 2026-05-08 20:53 | 49.01940 | 2.42763 | 1698 ft | 165 kts | 85° |
| 2026-05-08 20:54 | 49.02030 | 2.44406 | 1491 ft | 145 kts | 84° |
| 2026-05-08 20:54 | 49.02111 | 2.45885 | 1287 ft | 136 kts | 84° |
| 2026-05-08 20:54 | 49.02190 | 2.47323 | 1096 ft | 136 kts | 84° |
| 2026-05-08 20:54 | 49.02269 | 2.48767 | 917 ft | 137 kts | 84° |
| 2026-05-08 20:55 | 49.02348 | 2.50211 | 731 ft | 136 kts | 83° |
| 2026-05-08 20:55 | 49.02429 | 2.51641 | 525 ft | 136 kts | 83° |
| 2026-05-08 20:55 | 49.02504 | 2.53072 | 364 ft | 131 kts | 84° |
| 2026-05-08 20:55 | 49.02561 | 2.54145 | 354 ft | 49 kts | 85° |
| 2026-05-08 20:56 | 49.02545 | 2.54576 | 357 ft | 24 kts | 109° |
| 2026-05-08 20:56 | 49.02499 | 2.54830 | 357 ft | 26 kts | 104° |
| 2026-05-08 20:56 | 49.02478 | 2.54944 | 362 ft | 2 kts | 105° |
| 2026-05-08 20:56 | 49.02475 | 2.54964 | 359 ft | 2 kts | 105° |
| 2026-05-08 20:57 | 49.02473 | 2.54975 | 358 ft | 1 kts | 105° |
| 2026-05-08 20:57 | 49.02472 | 2.54981 | 357 ft | 3 kts | 105° |
| 2026-05-08 20:57 | 49.02449 | 2.55198 | 354 ft | 30 kts | 84° |
| 2026-05-08 20:57 | 49.02461 | 2.55517 | 358 ft | 30 kts | 92° |
| 2026-05-08 20:58 | 49.02415 | 2.55604 | 359 ft | 12 kts | 159° |
| 2026-05-08 20:58 | 49.02317 | 2.55625 | 360 ft | 14 kts | 176° |
| 2026-05-08 20:58 | 49.02225 | 2.55635 | 358 ft | 12 kts | 176° |
| 2026-05-08 20:58 | 49.02154 | 2.55643 | 360 ft | 0 kts | 175° |
| 2026-05-08 20:59 | 49.02082 | 2.55719 | 356 ft | 20 kts | 101° |
| 2026-05-08 20:59 | 49.02079 | 2.55788 | 356 ft | 0 kts | 86° |
| 2026-05-08 20:59 | 49.02081 | 2.55816 | 354 ft | 14 kts | 84° |
| 2026-05-08 21:00 | 49.02095 | 2.56019 | 354 ft | 11 kts | 84° |
| 2026-05-08 21:00 | 49.02097 | 2.56045 | 354 ft | 0 kts | 85° |
| 2026-05-08 21:00 | 49.02098 | 2.56092 | 354 ft | 11 kts | 87° |
| 2026-05-08 21:01 | 49.02095 | 2.56222 | 356 ft | 13 kts | 100° |
| 2026-05-08 21:01 | 49.02046 | 2.56344 | 363 ft | 14 kts | 128° |
| 2026-05-08 21:01 | 49.02026 | 2.56481 | 354 ft | 14 kts | 84° |
| 2026-05-08 21:01 | 49.02035 | 2.56643 | 359 ft | 16 kts | 85° |
| 2026-05-08 21:02 | 49.02045 | 2.56826 | 361 ft | 18 kts | 85° |
| 2026-05-08 21:02 | 49.02056 | 2.57031 | 354 ft | 20 kts | 85° |
| 2026-05-08 21:02 | 49.02066 | 2.57241 | 357 ft | 20 kts | 85° |
| 2026-05-08 21:02 | 49.02078 | 2.57450 | 362 ft | 19 kts | 85° |
| 2026-05-08 21:03 | 49.02090 | 2.57664 | 354 ft | 21 kts | 85° |
| 2026-05-08 21:03 | 49.02064 | 2.57889 | 361 ft | 22 kts | 113° |
| 2026-05-08 21:03 | 49.01958 | 2.58065 | 357 ft | 24 kts | 150° |
| 2026-05-08 21:03 | 49.01806 | 2.58127 | 354 ft | 23 kts | 173° |
| 2026-05-08 21:04 | 49.01643 | 2.58154 | 359 ft | 25 kts | 174° |
| 2026-05-08 21:04 | 49.01471 | 2.58166 | 361 ft | 22 kts | 173° |
| 2026-05-08 21:04 | 49.01309 | 2.58186 | 356 ft | 24 kts | 175° |
| 2026-05-08 21:04 | 49.01160 | 2.58207 | 354 ft | 15 kts | 174° |
| 2026-05-08 21:05 | 49.01066 | 2.58221 | 354 ft | 12 kts | 175° |
| 2026-05-08 21:05 | 49.01044 | 2.58224 | 354 ft | 1 kts | 175° |
| 2026-05-08 21:05 | 49.01038 | 2.58224 | 354 ft | 0 kts | 175° |
| 2026-05-08 21:05 | 49.01038 | 2.58225 | 354 ft | 0 kts | 175° |
| 2026-05-08 21:06 | 49.01036 | 2.58225 | 354 ft | 3 kts | 175° |
| 2026-05-08 21:06 | 49.00957 | 2.58221 | 358 ft | 14 kts | 194° |
| 2026-05-08 21:06 | 49.00909 | 2.58122 | 357 ft | 12 kts | 263° |
| 2026-05-08 21:06 | 49.00903 | 2.58005 | 354 ft | 10 kts | 265° |
| 2026-05-08 21:07 | 49.00897 | 2.57901 | 354 ft | 9 kts | 265° |
| 2026-05-08 21:07 | 49.00892 | 2.57807 | 361 ft | 10 kts | 265° |
| 2026-05-08 21:07 | 49.00885 | 2.57678 | 354 ft | 12 kts | 265° |
| 2026-05-08 21:07 | 49.00879 | 2.57556 | 361 ft | 11 kts | 265° |
| 2026-05-08 21:08 | 49.00873 | 2.57448 | 357 ft | 10 kts | 265° |
| 2026-05-08 21:08 | 49.00867 | 2.57351 | 354 ft | 9 kts | 265° |
| 2026-05-08 21:08 | 49.00862 | 2.57265 | 354 ft | 9 kts | 264° |
| 2026-05-08 21:08 | 49.00852 | 2.57073 | 361 ft | 22 kts | 266° |
| 2026-05-08 21:09 | 49.00839 | 2.56827 | 354 ft | 24 kts | 265° |
| 2026-05-08 21:09 | 49.00827 | 2.56599 | 355 ft | 6 kts | 265° |
| 2026-05-08 21:09 | 49.00825 | 2.56560 | 354 ft | 0 kts | 265° |
| 2026-05-08 21:10 | 49.00823 | 2.56536 | 364 ft | 6 kts | 262° |
| 2026-05-08 21:10 | 49.00810 | 2.56485 | 354 ft | 5 kts | 231° |
| 2026-05-08 21:10 | 49.00786 | 2.56471 | 354 ft | 3 kts | 172° |
| 2026-05-08 21:10 | 49.00767 | 2.56475 | 354 ft | 2 kts | 173° |
| 2026-05-08 21:11 | 49.00765 | 2.56475 | 354 ft | 0 kts | 173° |
| 2026-05-08 21:13 | 49.00762 | 2.56476 | 354 ft | 4 kts | 174° |
| 2026-05-08 21:14 | 49.00666 | 2.56490 | 355 ft | 14 kts | 176° |
| 2026-05-08 21:14 | 49.00614 | 2.56562 | 356 ft | 10 kts | 92° |
| 2026-05-08 21:14 | 49.00620 | 2.56678 | 354 ft | 12 kts | 85° |
| 2026-05-08 21:14 | 49.00628 | 2.56812 | 354 ft | 13 kts | 85° |
| 2026-05-08 21:15 | 49.00633 | 2.56900 | 354 ft | 8 kts | 84° |
| 2026-05-08 21:15 | 49.00602 | 2.56936 | 357 ft | 6 kts | 195° |
| 2026-05-08 21:15 | 49.00567 | 2.56913 | 359 ft | 5 kts | 206° |
| 2026-05-08 21:15 | 49.00552 | 2.56901 | 357 ft | 0 kts | 206° |